createdAt,value
2018-05-09T00:01:38.987Z,14.00
2018-05-09T00:04:06.536Z,14.00
2018-05-09T00:06:34.051Z,14.00
2018-05-09T00:09:02.377Z,14.00
2018-05-09T00:11:29.913Z,14.00
2018-05-09T00:13:57.439Z,14.00
2018-05-09T00:16:24.964Z,13.90
2018-05-09T00:18:52.474Z,13.90
2018-05-09T00:21:20.037Z,13.90
2018-05-09T00:23:47.588Z,13.80
2018-05-09T00:26:15.132Z,13.80
2018-05-09T00:28:42.655Z,13.70
2018-05-09T00:31:10.216Z,13.70
2018-05-09T00:33:37.736Z,13.70
2018-05-09T00:36:05.257Z,13.70
2018-05-09T00:38:32.780Z,13.70
2018-05-09T00:41:00.291Z,13.70
2018-05-09T00:43:28.587Z,13.60
2018-05-09T00:45:56.147Z,13.60
2018-05-09T00:48:23.680Z,13.60
2018-05-09T00:50:51.227Z,13.60
2018-05-09T00:53:18.771Z,13.60
2018-05-09T00:55:47.100Z,13.60
2018-05-09T00:58:15.427Z,13.50
2018-05-09T01:00:42.933Z,13.50
2018-05-09T01:03:10.478Z,13.50
2018-05-09T01:05:38.790Z,13.50
2018-05-09T01:08:06.296Z,13.40
2018-05-09T01:10:33.828Z,13.40
2018-05-09T01:13:01.393Z,13.30
2018-05-09T01:15:28.906Z,13.30
2018-05-09T01:17:56.416Z,13.20
2018-05-09T01:20:23.976Z,13.20
2018-05-09T01:22:51.520Z,13.10
2018-05-09T01:25:19.158Z,13.10
2018-05-09T01:27:46.706Z,13.00
2018-05-09T01:30:14.260Z,12.90
2018-05-09T01:32:41.795Z,13.00
2018-05-09T01:35:10.071Z,12.80
2018-05-09T01:37:38.380Z,12.80
2018-05-09T01:40:05.888Z,12.80
2018-05-09T01:42:33.399Z,12.80
2018-05-09T01:45:00.900Z,12.80
2018-05-09T01:47:28.429Z,12.80
2018-05-09T01:49:55.957Z,12.80
2018-05-09T01:52:23.514Z,12.90
2018-05-09T01:54:51.142Z,12.90
2018-05-09T01:57:18.668Z,12.70
2018-05-09T01:59:46.185Z,12.70
2018-05-09T02:02:14.507Z,12.60
2018-05-09T02:04:42.037Z,12.60
2018-05-09T02:07:09.576Z,12.60
2018-05-09T02:09:37.898Z,12.60
2018-05-09T02:12:05.418Z,12.60
2018-05-09T02:14:33.719Z,12.70
2018-05-09T02:17:01.264Z,12.60
2018-05-09T02:19:28.815Z,12.60
2018-05-09T02:21:56.354Z,12.60
2018-05-09T02:24:23.918Z,12.60
2018-05-09T02:26:52.210Z,12.50
2018-05-09T02:29:19.745Z,12.50
2018-05-09T02:31:47.265Z,12.50
2018-05-09T02:34:14.791Z,12.50
2018-05-09T02:36:42.365Z,12.40
2018-05-09T02:39:09.884Z,12.40
2018-05-09T02:41:37.410Z,12.40
2018-05-09T02:44:04.935Z,12.30
2018-05-09T02:46:32.525Z,12.30
2018-05-09T02:49:00.086Z,12.40
2018-05-09T02:51:27.645Z,12.40
2018-05-09T02:53:55.202Z,12.30
2018-05-09T02:56:22.748Z,12.30
2018-05-09T02:58:50.278Z,12.30
2018-05-09T03:01:17.822Z,12.20
2018-05-09T03:03:46.124Z,12.10
2018-05-09T03:06:13.660Z,12.20
2018-05-09T03:08:41.985Z,12.10
2018-05-09T03:11:09.545Z,12.10
2018-05-09T03:13:37.132Z,12.10
2018-05-09T03:16:04.674Z,12.20
2018-05-09T03:18:32.254Z,12.20
2018-05-09T03:20:59.777Z,12.10
2018-05-09T03:23:27.282Z,12.10
2018-05-09T03:25:55.590Z,12.00
2018-05-09T03:28:23.109Z,12.00
2018-05-09T03:30:50.647Z,11.90
2018-05-09T03:33:18.956Z,11.80
2018-05-09T03:35:47.271Z,11.80
2018-05-09T03:38:14.790Z,11.90
2018-05-09T03:40:43.110Z,11.90
2018-05-09T03:43:10.674Z,11.80
2018-05-09T03:45:39.053Z,11.80
2018-05-09T03:48:06.564Z,11.80
2018-05-09T03:50:34.118Z,11.80
2018-05-09T03:53:02.437Z,11.80
2018-05-09T03:55:29.948Z,11.80
2018-05-09T03:57:57.483Z,11.80
2018-05-09T04:00:25.099Z,11.80
2018-05-09T04:03:13.423Z,11.80
2018-05-09T04:05:53.487Z,11.80
2018-05-09T04:08:33.078Z,11.80
2018-05-09T04:11:01.454Z,11.80
2018-05-09T04:13:28.996Z,11.80
2018-05-09T04:15:56.529Z,11.80
2018-05-09T04:18:24.085Z,11.80
2018-05-09T04:20:51.692Z,11.80
2018-05-09T04:23:19.952Z,12.00
2018-05-09T04:25:47.482Z,11.90
2018-05-09T04:28:15.124Z,12.10
2018-05-09T04:30:42.593Z,12.20
2018-05-09T04:33:10.902Z,12.40
2018-05-09T04:35:38.431Z,12.40
2018-05-09T04:38:05.977Z,12.40
2018-05-09T04:40:34.284Z,12.60
2018-05-09T04:43:01.809Z,12.60
2018-05-09T04:45:30.146Z,12.90
2018-05-09T04:47:57.691Z,12.80
2018-05-09T04:50:25.226Z,13.00
2018-05-09T04:52:52.844Z,13.10
2018-05-09T04:55:20.396Z,13.10
2018-05-09T04:57:47.961Z,13.10
2018-05-09T05:00:15.512Z,13.20
2018-05-09T05:02:43.077Z,13.10
2018-05-09T05:05:10.632Z,13.40
2018-05-09T05:07:38.169Z,13.60
2018-05-09T05:10:05.697Z,13.80
2018-05-09T05:12:33.227Z,13.70
2018-05-09T05:15:00.896Z,13.80
2018-05-09T05:17:29.206Z,14.10
2018-05-09T05:19:56.810Z,14.10
2018-05-09T05:22:24.407Z,14.00
2018-05-09T05:24:52.269Z,14.30
2018-05-09T05:27:19.825Z,14.40
2018-05-09T05:29:48.419Z,14.60
2018-05-09T05:32:15.981Z,14.60
2018-05-09T05:34:43.539Z,14.90
2018-05-09T05:37:11.054Z,15.40
2018-05-09T05:39:38.617Z,15.70
2018-05-09T05:42:06.159Z,15.90
2018-05-09T05:44:33.670Z,16.20
2018-05-09T05:47:01.277Z,16.80
2018-05-09T05:49:28.799Z,17.00
2018-05-09T05:51:56.331Z,17.40
2018-05-09T05:54:24.749Z,18.10
2018-05-09T05:56:52.310Z,18.00
2018-05-09T05:59:19.824Z,18.20
2018-05-09T06:01:48.108Z,18.00
2018-05-09T06:04:16.414Z,18.00
2018-05-09T06:06:43.955Z,18.00
2018-05-09T06:09:11.486Z,18.10
2018-05-09T06:11:39.008Z,18.70
2018-05-09T06:14:06.661Z,19.30
2018-05-09T06:16:34.234Z,19.60
2018-05-09T06:19:01.809Z,20.00
2018-05-09T06:21:29.367Z,20.10
2018-05-09T06:23:56.998Z,20.50
2018-05-09T06:26:24.457Z,21.00
2018-05-09T06:28:52.001Z,20.70
2018-05-09T06:31:19.517Z,20.70
2018-05-09T06:33:47.224Z,20.80
2018-05-09T06:36:14.754Z,20.70
2018-05-09T06:38:43.059Z,21.50
2018-05-09T06:41:10.594Z,21.50
2018-05-09T06:43:38.278Z,21.80
2018-05-09T06:46:05.750Z,21.30
2018-05-09T06:48:33.277Z,20.60
2018-05-09T06:51:00.814Z,19.50
2018-05-09T06:53:29.105Z,19.70
2018-05-09T06:55:57.429Z,20.00
2018-05-09T06:58:24.952Z,20.00
2018-05-09T07:00:52.507Z,19.80
2018-05-09T07:03:20.062Z,20.40
2018-05-09T07:05:48.364Z,21.70
2018-05-09T07:08:15.913Z,21.60
2018-05-09T07:10:43.448Z,21.60
2018-05-09T07:13:11.024Z,21.80
2018-05-09T07:15:38.605Z,21.10
2018-05-09T07:18:06.231Z,21.40
2018-05-09T07:20:34.532Z,22.90
2018-05-09T07:23:02.063Z,22.80
2018-05-09T07:25:29.632Z,23.40
2018-05-09T07:27:57.154Z,23.70
2018-05-09T07:30:24.715Z,23.50
2018-05-09T07:32:52.250Z,22.60
2018-05-09T07:35:19.816Z,22.30
2018-05-09T07:37:47.423Z,22.00
2018-05-09T07:40:15.806Z,20.70
2018-05-09T07:42:43.402Z,20.60
2018-05-09T07:45:11.709Z,22.40
2018-05-09T07:47:39.361Z,22.40
2018-05-09T07:50:06.793Z,21.70
2018-05-09T07:52:34.311Z,21.20
2018-05-09T07:55:02.590Z,22.10
2018-05-09T07:57:30.926Z,22.10
2018-05-09T07:59:58.471Z,22.10
2018-05-09T08:02:26.114Z,21.10
2018-05-09T08:04:53.649Z,20.70
2018-05-09T08:07:22.350Z,20.70
2018-05-09T08:09:49.888Z,20.70
2018-05-09T08:12:18.162Z,20.10
2018-05-09T08:14:45.687Z,20.10
2018-05-09T08:17:13.211Z,20.40
2018-05-09T08:19:40.735Z,20.40
2018-05-09T08:22:09.015Z,20.50
2018-05-09T08:24:37.317Z,20.70
2018-05-09T08:27:04.842Z,20.60
2018-05-09T08:29:33.164Z,22.10
2018-05-09T08:32:00.721Z,22.20
2018-05-09T08:34:28.235Z,22.30
2018-05-09T08:36:56.553Z,23.30
2018-05-09T08:39:24.095Z,23.30
2018-05-09T08:41:52.432Z,21.40
2018-05-09T08:44:20.724Z,22.60
2018-05-09T08:46:49.028Z,23.00
2018-05-09T08:49:16.642Z,23.00
2018-05-09T08:51:44.118Z,22.60
2018-05-09T08:54:12.439Z,24.20
2018-05-09T08:56:39.966Z,24.20
2018-05-09T08:59:07.511Z,23.50
2018-05-09T09:01:36.030Z,23.50
2018-05-09T09:04:03.611Z,23.50
2018-05-09T09:06:31.360Z,24.30
2018-05-09T09:08:58.809Z,25.40
2018-05-09T09:11:26.332Z,25.60
2018-05-09T09:13:54.641Z,24.90
2018-05-09T09:16:22.180Z,24.80
2018-05-09T09:18:50.503Z,24.00
2018-05-09T09:21:18.049Z,24.00
2018-05-09T09:23:45.626Z,23.10
2018-05-09T09:26:13.188Z,21.90
2018-05-09T09:28:40.727Z,21.40
2018-05-09T09:31:08.292Z,21.70
2018-05-09T09:33:35.946Z,22.30
2018-05-09T09:36:03.518Z,23.20
2018-05-09T09:38:31.051Z,24.00
2018-05-09T09:40:58.562Z,23.90
2018-05-09T09:43:26.095Z,23.30
2018-05-09T09:45:53.735Z,23.60
2018-05-09T09:48:21.250Z,24.30
2018-05-09T09:50:50.299Z,25.40
2018-05-09T09:53:17.810Z,25.40
2018-05-09T09:55:46.125Z,24.00
2018-05-09T09:58:13.678Z,24.00
2018-05-09T10:00:41.213Z,23.40
2018-05-09T10:03:08.790Z,23.80
2018-05-09T10:05:36.398Z,24.00
2018-05-09T10:08:04.018Z,23.40
2018-05-09T10:10:32.613Z,23.70
2018-05-09T10:13:00.255Z,23.70
2018-05-09T10:15:27.810Z,23.70
2018-05-09T10:17:55.333Z,24.40
2018-05-09T10:20:22.860Z,23.70
2018-05-09T10:22:50.384Z,24.60
2018-05-09T10:25:18.330Z,25.00
2018-05-09T10:27:45.943Z,24.40
2018-05-09T10:30:13.478Z,23.70
2018-05-09T10:32:41.147Z,24.10
2018-05-09T10:35:09.450Z,24.10
2018-05-09T10:37:36.977Z,24.10
2018-05-09T10:40:04.528Z,24.70
2018-05-09T10:42:32.070Z,25.80
2018-05-09T10:45:00.379Z,25.30
2018-05-09T10:47:27.985Z,25.30
2018-05-09T10:49:55.452Z,25.30
2018-05-09T10:52:23.728Z,24.60
2018-05-09T10:54:52.069Z,24.80
2018-05-09T10:57:19.647Z,24.80
2018-05-09T10:59:48.067Z,25.90
2018-05-09T11:02:15.593Z,25.80
2018-05-09T11:04:43.923Z,27.10
2018-05-09T11:07:11.463Z,27.10
2018-05-09T11:09:39.023Z,28.60
2018-05-09T11:12:06.912Z,28.60
2018-05-09T11:14:34.449Z,26.70
2018-05-09T11:17:02.849Z,26.80
2018-05-09T11:19:30.375Z,27.90
2018-05-09T11:21:58.695Z,28.20
2018-05-09T11:24:26.277Z,26.60
2018-05-09T11:26:53.801Z,28.10
2018-05-09T11:29:22.743Z,29.20
2018-05-09T11:31:50.362Z,29.00
2018-05-09T11:34:17.899Z,27.40
2018-05-09T11:36:45.560Z,28.00
2018-05-09T11:39:14.569Z,27.80
2018-05-09T11:41:42.119Z,28.30
2018-05-09T11:44:09.648Z,28.60
2018-05-09T11:46:37.199Z,26.90
2018-05-09T11:49:05.474Z,28.40
2018-05-09T11:51:33.797Z,28.90
2018-05-09T11:54:01.389Z,28.90
2018-05-09T11:56:29.026Z,29.50
2018-05-09T11:58:56.662Z,27.90
2018-05-09T12:01:24.195Z,26.80
2018-05-09T12:03:52.488Z,25.00
2018-05-09T12:06:20.002Z,25.00
2018-05-09T12:08:47.529Z,25.80
2018-05-09T12:11:15.083Z,28.20
2018-05-09T12:13:42.626Z,30.10
2018-05-09T12:16:10.146Z,28.60
2018-05-09T12:18:38.443Z,27.40
2018-05-09T12:21:05.979Z,27.40
2018-05-09T12:23:33.504Z,26.40
2018-05-09T12:26:01.067Z,26.10
2018-05-09T12:28:28.612Z,26.00
2018-05-09T12:30:56.150Z,26.10
2018-05-09T12:33:23.704Z,26.30
2018-05-09T12:35:51.282Z,26.00
2018-05-09T12:38:18.872Z,26.80
2018-05-09T12:40:46.422Z,26.90
2018-05-09T12:43:14.067Z,25.70
2018-05-09T12:45:41.624Z,25.30
2018-05-09T12:48:09.225Z,24.90
2018-05-09T12:50:36.844Z,25.70
2018-05-09T12:53:04.499Z,27.40
2018-05-09T12:55:32.022Z,28.80
2018-05-09T12:58:00.406Z,27.20
2018-05-09T13:00:28.701Z,27.00
2018-05-09T13:02:56.224Z,27.00
2018-05-09T13:05:23.775Z,25.90
2018-05-09T13:07:51.286Z,25.10
2018-05-09T13:10:18.843Z,25.60
2018-05-09T13:12:46.353Z,25.90
2018-05-09T13:15:13.893Z,25.60
2018-05-09T13:17:41.510Z,26.60
2018-05-09T13:20:09.071Z,27.50
2018-05-09T13:22:36.657Z,27.00
2018-05-09T13:25:04.194Z,27.20
2018-05-09T13:27:31.723Z,27.40
2018-05-09T13:30:00.034Z,28.10
2018-05-09T13:32:28.671Z,28.00
2018-05-09T13:34:56.982Z,28.80
2018-05-09T13:37:24.606Z,28.80
2018-05-09T13:39:52.185Z,28.40
2018-05-09T13:42:21.840Z,27.60
2018-05-09T13:44:49.360Z,28.60
2018-05-09T13:47:18.560Z,28.10
2018-05-09T13:49:46.133Z,28.00
2018-05-09T13:52:13.665Z,28.70
2018-05-09T13:54:41.972Z,27.30
2018-05-09T13:57:09.522Z,27.30
2018-05-09T13:59:37.195Z,26.80
2018-05-09T14:02:06.052Z,27.10
2018-05-09T14:04:34.350Z,24.60
2018-05-09T14:07:01.937Z,24.50
2018-05-09T14:09:29.491Z,23.90
2018-05-09T14:11:57.037Z,23.90
2018-05-09T14:14:24.563Z,23.70
2018-05-09T14:16:52.880Z,23.90
2018-05-09T14:19:20.415Z,23.90
2018-05-09T14:21:48.010Z,23.90
2018-05-09T14:24:15.610Z,24.20
2018-05-09T14:26:43.118Z,24.40
2018-05-09T14:29:10.674Z,24.20
2018-05-09T14:31:38.244Z,23.90
2018-05-09T14:34:05.759Z,24.10
2018-05-09T14:36:33.333Z,24.40
2018-05-09T14:39:01.006Z,24.10
2018-05-09T14:41:28.474Z,23.90
2018-05-09T14:43:56.039Z,23.90
2018-05-09T14:46:24.367Z,23.80
2018-05-09T14:48:51.918Z,23.80
2018-05-09T14:51:20.308Z,23.70
2018-05-09T14:53:48.598Z,23.80
2018-05-09T14:56:16.176Z,23.80
2018-05-09T14:58:43.707Z,23.70
2018-05-09T15:01:12.367Z,23.40
2018-05-09T15:03:39.893Z,23.40
2018-05-09T15:06:07.460Z,23.40
2018-05-09T15:08:34.988Z,23.50
2018-05-09T15:11:02.544Z,23.80
2018-05-09T15:13:30.180Z,24.00
2018-05-09T15:15:57.762Z,24.50
2018-05-09T15:18:25.346Z,24.30
2018-05-09T15:20:52.896Z,24.20
2018-05-09T15:23:20.455Z,24.40
2018-05-09T15:25:48.027Z,23.90
2018-05-09T15:28:15.568Z,24.20
2018-05-09T15:30:43.094Z,24.20
2018-05-09T15:33:12.632Z,23.70
2018-05-09T15:35:40.272Z,23.60
2018-05-09T15:38:07.802Z,23.60
2018-05-09T15:40:35.380Z,23.80
2018-05-09T15:43:03.759Z,23.70
2018-05-09T15:45:32.134Z,23.60
2018-05-09T15:48:00.417Z,23.60
2018-05-09T15:50:28.015Z,23.60
2018-05-09T15:52:55.557Z,23.40
2018-05-09T15:55:23.082Z,23.10
2018-05-09T15:57:50.660Z,23.10
2018-05-09T16:00:18.230Z,23.20
2018-05-09T16:02:45.761Z,23.30
2018-05-09T16:05:14.081Z,23.60
2018-05-09T16:07:41.641Z,23.50
2018-05-09T16:10:09.186Z,23.60
2018-05-09T16:12:36.749Z,23.50
2018-05-09T16:15:04.273Z,23.40
2018-05-09T16:17:31.825Z,23.50
2018-05-09T16:19:59.358Z,23.60
2018-05-09T16:22:26.908Z,23.60
2018-05-09T16:24:54.449Z,23.60
2018-05-09T16:27:21.989Z,23.50
2018-05-09T16:29:49.531Z,23.50
2018-05-09T16:32:17.834Z,23.10
2018-05-09T16:34:45.350Z,23.10
2018-05-09T16:37:13.723Z,23.10
2018-05-09T16:39:41.273Z,23.10
2018-05-09T16:42:08.807Z,23.20
2018-05-09T16:44:36.360Z,23.40
2018-05-09T16:47:03.885Z,23.40
2018-05-09T16:49:32.636Z,23.00
2018-05-09T16:52:00.172Z,22.50
2018-05-09T16:54:27.756Z,22.30
2018-05-09T16:56:55.332Z,22.10
2018-05-09T16:59:22.891Z,22.00
2018-05-09T17:01:50.450Z,21.90
2018-05-09T17:04:18.831Z,21.80
2018-05-09T17:06:47.182Z,21.70
2018-05-09T17:09:14.730Z,21.70
2018-05-09T17:11:42.281Z,21.60
2018-05-09T17:14:09.835Z,21.60
2018-05-09T17:16:37.354Z,21.60
2018-05-09T17:19:05.641Z,21.60
2018-05-09T17:21:45.190Z,21.60
2018-05-09T17:24:12.760Z,21.50
2018-05-09T17:26:40.280Z,21.50
2018-05-09T17:29:08.865Z,21.40
2018-05-09T17:31:36.836Z,21.40
2018-05-09T17:34:05.131Z,21.30
2018-05-09T17:36:32.697Z,21.30
2018-05-09T17:39:00.245Z,21.30
2018-05-09T17:41:28.139Z,21.30
2018-05-09T17:43:55.739Z,21.30
2018-05-09T17:46:23.368Z,21.20
2018-05-09T17:48:50.922Z,21.20
2018-05-09T17:51:22.385Z,21.10
2018-05-09T17:53:49.928Z,21.10
2018-05-09T17:56:17.505Z,21.10
2018-05-09T17:58:45.070Z,21.10
2018-05-09T18:01:12.620Z,21.00
2018-05-09T18:03:40.961Z,20.90
2018-05-09T18:06:08.523Z,20.90
2018-05-09T18:08:36.080Z,20.80
2018-05-09T18:11:03.975Z,20.60
2018-05-09T18:13:32.246Z,20.50
2018-05-09T18:15:59.791Z,20.50
2018-05-09T18:18:27.342Z,20.50
2018-05-09T18:20:54.919Z,20.40
2018-05-09T18:23:22.580Z,20.50
2018-05-09T18:25:50.112Z,20.40
2018-05-09T18:28:17.651Z,20.30
2018-05-09T18:30:45.950Z,20.20
2018-05-09T18:33:13.512Z,20.20
2018-05-09T18:35:41.047Z,20.20
2018-05-09T18:38:09.380Z,20.10
2018-05-09T18:40:36.927Z,20.00
2018-05-09T18:43:04.508Z,20.00
2018-05-09T18:45:32.036Z,19.90
2018-05-09T18:48:00.427Z,19.80
2018-05-09T18:50:28.756Z,19.80
2018-05-09T18:52:56.301Z,19.80
2018-05-09T18:55:23.885Z,19.80
2018-05-09T18:57:52.252Z,19.60
2018-05-09T19:00:20.557Z,19.60
2018-05-09T19:02:48.122Z,19.60
2018-05-09T19:05:15.672Z,19.50
2018-05-09T19:07:43.240Z,19.40
2018-05-09T19:10:10.899Z,19.30
2018-05-09T19:12:38.464Z,19.20
2018-05-09T19:15:06.107Z,19.20
2018-05-09T19:17:33.671Z,19.00
2018-05-09T19:20:01.199Z,19.00
2018-05-09T19:22:29.509Z,18.90
2018-05-09T19:24:57.128Z,18.80
2018-05-09T19:27:24.688Z,18.90
2018-05-09T19:29:52.286Z,18.80
2018-05-09T19:32:19.886Z,18.70
2018-05-09T19:34:47.461Z,18.70
2018-05-09T19:37:15.438Z,18.60
2018-05-09T19:39:43.061Z,18.60
2018-05-09T19:42:10.738Z,18.60
2018-05-09T19:44:38.301Z,18.50
2018-05-09T19:47:05.872Z,18.50
2018-05-09T19:49:34.232Z,18.50
2018-05-09T19:52:01.815Z,18.40
2018-05-09T19:54:29.357Z,18.30
2018-05-09T19:56:57.001Z,18.10
2018-05-09T19:59:24.642Z,18.10
2018-05-09T20:01:52.284Z,18.00
2018-05-09T20:04:20.681Z,17.90
2018-05-09T20:06:48.330Z,17.90
2018-05-09T20:09:15.912Z,17.90
2018-05-09T20:11:43.897Z,17.90
2018-05-09T20:14:11.479Z,17.90
2018-05-09T20:16:39.050Z,17.80
2018-05-09T20:19:06.653Z,17.80
2018-05-09T20:21:34.217Z,17.70
2018-05-09T20:24:01.767Z,17.80
2018-05-09T20:26:30.706Z,17.70
2018-05-09T20:29:02.036Z,17.70
2018-05-09T20:31:48.468Z,17.60
2018-05-09T20:34:16.085Z,17.50
2018-05-09T20:36:43.925Z,17.40
2018-05-09T20:39:11.922Z,17.30
2018-05-09T20:41:39.553Z,17.20
2018-05-09T20:44:07.122Z,17.30
2018-05-09T20:46:34.739Z,17.20
2018-05-09T20:49:02.771Z,17.20
2018-05-09T20:54:32.553Z,17.20
2018-05-09T20:57:00.146Z,17.10
2018-05-09T20:59:28.978Z,17.00
2018-05-09T21:01:56.549Z,17.00
2018-05-09T21:04:24.652Z,17.10
2018-05-09T21:06:52.191Z,17.10
2018-05-09T21:09:20.613Z,17.00
2018-05-09T21:12:00.089Z,17.00
2018-05-09T21:14:28.405Z,16.80
2018-05-09T21:16:56.771Z,16.80
2018-05-09T21:19:24.334Z,16.80
2018-05-09T21:21:52.715Z,16.70
2018-05-09T21:24:21.008Z,16.70
2018-05-09T21:26:48.553Z,16.60
2018-05-09T21:29:16.103Z,16.60
2018-05-09T21:31:43.646Z,16.50
2018-05-09T21:34:11.982Z,16.30
2018-05-09T21:36:39.526Z,16.30
2018-05-09T21:39:07.113Z,16.20
2018-05-09T21:41:34.642Z,16.20
2018-05-09T21:44:02.222Z,16.10
2018-05-09T21:46:29.766Z,16.10
2018-05-09T21:48:57.288Z,16.10
2018-05-09T21:51:25.576Z,16.00
2018-05-09T21:53:53.926Z,16.10
2018-05-09T21:56:21.478Z,16.00
2018-05-09T21:58:49.036Z,16.10
2018-05-09T22:01:16.776Z,16.10
2018-05-09T22:03:44.176Z,16.10
2018-05-09T22:06:14.089Z,16.00
2018-05-09T22:08:42.381Z,16.00
2018-05-09T22:11:09.928Z,16.00
2018-05-09T22:13:38.878Z,16.00
2018-05-09T22:16:06.516Z,15.90
2018-05-09T22:18:34.033Z,16.00
2018-05-09T22:21:02.368Z,16.00
2018-05-09T22:23:30.722Z,16.00
2018-05-09T22:25:58.394Z,15.90
2018-05-09T22:28:25.930Z,15.90
2018-05-09T22:30:53.476Z,15.80
2018-05-09T22:33:21.794Z,15.70
2018-05-09T22:35:49.318Z,15.70
2018-05-09T22:38:18.863Z,15.60
2018-05-09T22:40:46.400Z,15.60
2018-05-09T22:43:13.953Z,15.50
2018-05-09T22:45:41.472Z,15.40
2018-05-09T22:48:09.032Z,15.30
2018-05-09T22:50:36.555Z,15.30
2018-05-09T22:53:04.075Z,15.20
2018-05-09T22:55:32.744Z,15.20
2018-05-09T22:58:01.086Z,15.20
2018-05-09T23:00:28.643Z,15.10
2018-05-09T23:02:56.163Z,15.10
2018-05-09T23:05:23.716Z,15.00
2018-05-09T23:07:51.233Z,14.90
2018-05-09T23:10:18.787Z,14.90
2018-05-09T23:12:46.374Z,14.90
2018-05-09T23:15:14.707Z,14.80
2018-05-09T23:17:42.260Z,14.80
2018-05-09T23:20:09.775Z,14.80
2018-05-09T23:22:37.334Z,14.80
2018-05-09T23:25:04.864Z,14.80
2018-05-09T23:27:32.386Z,14.80
2018-05-09T23:29:59.931Z,14.80
2018-05-09T23:32:27.478Z,14.80
2018-05-09T23:34:55.002Z,14.80
2018-05-09T23:37:22.527Z,14.80
2018-05-09T23:39:50.084Z,14.80
2018-05-09T23:42:17.616Z,14.80
2018-05-09T23:44:45.164Z,14.70
2018-05-09T23:47:12.710Z,14.70
2018-05-09T23:49:41.007Z,14.70
2018-05-09T23:52:08.572Z,14.70
2018-05-09T23:54:36.862Z,14.70
2018-05-09T23:57:04.374Z,14.60
2018-05-09T23:59:31.931Z,14.60
